Time;durP1;ratioP1;P1;durP2;ratioP2;P2;SDS_P1;SDS_P2;PMS_P1;PMS_P2;Temp;Humidity;BMP_temperature;BMP_pressure;BME280_temperature;BME280_humidity;BME280_pressure;Samples;Min_cycle;Max_cycle;Signal;HPM_P1;HPM_P2
2023/01/07 00:00:00;;;;;;;35.60;29.42;;;;;;;;;;5069681;28;20400;-50
2023/01/07 00:02:26;;;;;;;34.30;24.30;;;;;;;;;;5070852;28;20203;-52
2023/01/07 00:04:54;;;;;;;28.50;22.30;;;;;;;;;;5070563;28;20215;-52
2023/01/07 00:07:20;;;;;;;32.27;23.23;;;;;;;;;;5070804;28;20204;-51
2023/01/07 00:09:45;;;;;;;31.75;27.08;;;;;;;;;;5069752;28;20410;-51
2023/01/07 00:12:11;;;;;;;28.60;22.43;;;;;;;;;;5070763;28;20747;-51
2023/01/07 00:14:37;;;;;;;30.97;23.47;;;;;;;;;;5070570;28;20288;-51
2023/01/07 00:17:03;;;;;;;28.80;21.83;;;;;;;;;;5070305;28;20282;-52
2023/01/07 00:19:29;;;;;;;30.73;26.60;;;;;;;;;;5069320;28;20408;-50
2023/01/07 00:21:57;;;;;;;29.88;26.08;;;;;;;;;;5070422;28;20407;-49
2023/01/07 00:24:23;;;;;;;28.93;25.50;;;;;;;;;;5073217;28;20419;-49
2023/01/07 00:26:49;;;;;;;30.48;26.30;;;;;;;;;;5072941;28;20502;-48
2023/01/07 00:29:15;;;;;;;28.08;25.08;;;;;;;;;;5072949;28;20482;-49
2023/01/07 00:31:41;;;;;;;27.80;24.73;;;;;;;;;;5072975;28;20396;-48
2023/01/07 00:34:08;;;;;;;28.58;25.13;;;;;;;;;;5072873;28;20414;-48
2023/01/07 00:36:36;;;;;;;28.33;24.70;;;;;;;;;;5072964;28;20392;-49
2023/01/07 00:39:05;;;;;;;30.83;26.23;;;;;;;;;;5072924;28;20487;-50
2023/01/07 00:41:32;;;;;;;31.70;26.67;;;;;;;;;;5072435;28;20522;-50
2023/01/07 00:43:58;;;;;;;34.78;28.48;;;;;;;;;;5072719;28;20518;-50
2023/01/07 00:46:24;;;;;;;35.90;28.30;;;;;;;;;;5072358;28;20511;-50
2023/01/07 00:48:50;;;;;;;37.20;28.23;;;;;;;;;;5072797;28;20399;-52
2023/01/07 00:51:16;;;;;;;36.97;28.35;;;;;;;;;;5072653;28;20404;-52
2023/01/07 00:53:43;;;;;;;37.40;28.58;;;;;;;;;;5072350;28;20446;-53
2023/01/07 00:56:11;;;;;;;35.55;28.42;;;;;;;;;;5072542;28;20491;-52
2023/01/07 00:58:37;;;;;;;35.88;27.75;;;;;;;;;;5072484;28;20981;-53
2023/01/07 01:01:03;;;;;;;31.73;25.92;;;;;;;;;;5072386;28;20392;-53
2023/01/07 01:03:30;;;;;;;32.00;25.05;;;;;;;;;;5071954;28;20396;-53
2023/01/07 01:06:00;;;;;;;35.38;27.15;;;;;;;;;;5072037;28;20411;-53
2023/01/07 01:08:26;;;;;;;35.20;26.88;;;;;;;;;;5072170;28;20411;-53
2023/01/07 01:10:52;;;;;;;33.23;26.33;;;;;;;;;;5072378;28;20407;-53
2023/01/07 01:13:20;;;;;;;30.27;24.95;;;;;;;;;;5072167;28;20832;-52
2023/01/07 01:15:46;;;;;;;31.30;25.70;;;;;;;;;;5070341;28;20578;-53
2023/01/07 01:18:13;;;;;;;33.58;26.63;;;;;;;;;;5070407;28;20410;-52
2023/01/07 01:20:39;;;;;;;31.20;25.30;;;;;;;;;;5071928;28;21088;-53
2023/01/07 01:23:05;;;;;;;31.57;25.33;;;;;;;;;;5072028;28;20775;-53
2023/01/07 01:25:31;;;;;;;31.23;24.83;;;;;;;;;;5071922;28;20447;-52
2023/01/07 01:27:57;;;;;;;26.80;22.67;;;;;;;;;;5072083;28;20890;-54
2023/01/07 01:30:25;;;;;;;27.60;24.20;;;;;;;;;;5071876;28;20450;-51
2023/01/07 01:32:51;;;;;;;27.80;24.00;;;;;;;;;;5071461;28;20434;-50
2023/01/07 01:35:17;;;;;;;27.92;24.55;;;;;;;;;;5072058;28;20404;-52
2023/01/07 01:37:44;;;;;;;25.65;22.95;;;;;;;;;;5071666;28;20418;-52
2023/01/07 01:40:10;;;;;;;24.98;22.27;;;;;;;;;;5071918;28;20483;-54
2023/01/07 01:42:36;;;;;;;22.77;19.87;;;;;;;;;;5072955;28;20863;-53
2023/01/07 01:45:03;;;;;;;21.37;17.50;;;;;;;;;;5073009;28;20211;-52
2023/01/07 01:47:33;;;;;;;21.87;18.70;;;;;;;;;;5072655;28;20203;-52
2023/01/07 01:50:00;;;;;;;20.70;18.20;;;;;;;;;;5072279;28;20299;-52
2023/01/07 01:52:29;;;;;;;21.77;18.60;;;;;;;;;;5072608;28;20192;-52
2023/01/07 01:54:58;;;;;;;24.27;18.63;;;;;;;;;;5072968;28;20204;-52
2023/01/07 01:57:27;;;;;;;20.90;18.40;;;;;;;;;;5072726;28;20222;-52
2023/01/07 01:59:53;;;;;;;22.97;19.30;;;;;;;;;;5072644;28;20234;-52
2023/01/07 02:02:24;;;;;;;22.57;19.30;;;;;;;;;;5072651;28;20204;-52
2023/01/07 02:04:52;;;;;;;22.70;20.30;;;;;;;;;;5072644;28;20673;-52
2023/01/07 02:07:18;;;;;;;23.20;19.57;;;;;;;;;;5072559;28;20676;-52
2023/01/07 02:09:44;;;;;;;23.47;19.93;;;;;;;;;;5072387;28;20547;-51
2023/01/07 02:12:15;;;;;;;23.80;19.53;;;;;;;;;;5072431;28;20206;-52
2023/01/07 02:14:45;;;;;;;24.83;20.50;;;;;;;;;;5072510;28;20207;-53
2023/01/07 02:17:16;;;;;;;22.53;20.13;;;;;;;;;;5072536;28;20208;-51
2023/01/07 02:20:03;;;;;;;22.70;20.30;;;;;;;;;;5072391;28;20217;-51
2023/01/07 02:22:40;;;;;;;23.70;19.80;;;;;;;;;;5071969;28;20325;-52
2023/01/07 02:25:26;;;;;;;23.40;20.50;;;;;;;;;;5072378;28;20219;-52
2023/01/07 02:28:07;;;;;;;24.73;20.60;;;;;;;;;;5072486;28;20208;-51
2023/01/07 02:30:54;;;;;;;25.97;22.07;;;;;;;;;;5072052;28;20202;-52
2023/01/07 02:33:33;;;;;;;24.07;20.50;;;;;;;;;;5072048;28;20211;-52
2023/01/07 02:36:12;;;;;;;25.10;22.27;;;;;;;;;;5072028;28;20219;-52
2023/01/07 02:38:50;;;;;;;27.67;22.43;;;;;;;;;;5072131;28;20234;-52
2023/01/07 02:41:19;;;;;;;25.20;22.13;;;;;;;;;;5071961;28;20191;-51
2023/01/07 02:43:52;;;;;;;24.27;21.37;;;;;;;;;;5071520;28;20256;-52
2023/01/07 02:46:20;;;;;;;24.57;21.30;;;;;;;;;;5071572;28;20230;-52
2023/01/07 02:48:48;;;;;;;24.60;21.40;;;;;;;;;;5071856;28;20192;-52
2023/01/07 02:51:14;;;;;;;26.07;21.40;;;;;;;;;;5071643;28;20761;-52
2023/01/07 02:53:41;;;;;;;23.67;20.70;;;;;;;;;;5071947;28;20203;-52
2023/01/07 02:56:15;;;;;;;25.90;22.57;;;;;;;;;;5071807;28;20275;-52
2023/01/07 02:58:48;;;;;;;25.57;22.80;;;;;;;;;;5071655;28;20206;-51
2023/01/07 03:01:23;;;;;;;25.77;23.00;;;;;;;;;;5071661;28;20200;-52
2023/01/07 03:03:59;;;;;;;24.27;21.33;;;;;;;;;;5071781;28;20194;-52
2023/01/07 03:06:33;;;;;;;23.10;20.70;;;;;;;;;;5071422;28;20238;-52
2023/01/07 03:09:02;;;;;;;23.27;20.77;;;;;;;;;;5071827;28;20282;-53
2023/01/07 03:11:32;;;;;;;22.57;20.20;;;;;;;;;;5071323;28;20218;-53
2023/01/07 03:14:02;;;;;;;22.30;19.93;;;;;;;;;;5071502;28;20249;-52
2023/01/07 03:16:32;;;;;;;22.27;19.80;;;;;;;;;;5071391;28;20197;-53
2023/01/07 03:19:00;;;;;;;21.47;19.37;;;;;;;;;;5071429;28;20195;-51
2023/01/07 03:21:27;;;;;;;22.40;20.10;;;;;;;;;;5071144;28;20551;-51
2023/01/07 03:23:55;;;;;;;21.20;19.10;;;;;;;;;;5071241;28;20243;-52
2023/01/07 03:26:23;;;;;;;21.07;18.87;;;;;;;;;;5071173;28;20237;-52
2023/01/07 03:28:50;;;;;;;20.57;18.47;;;;;;;;;;5071331;28;20203;-53
2023/01/07 03:31:18;;;;;;;21.13;18.93;;;;;;;;;;5071123;28;20613;-51
2023/01/07 03:33:47;;;;;;;20.50;18.50;;;;;;;;;;5071215;28;20203;-52
2023/01/07 03:36:16;;;;;;;19.77;17.80;;;;;;;;;;5071310;28;20233;-52
2023/01/07 03:38:43;;;;;;;20.77;18.70;;;;;;;;;;5071180;28;20206;-52
2023/01/07 03:42:38;;;;;;;20.50;18.53;;;;;;;;;;5071160;28;20203;-52
2023/01/07 03:43:55;;;;;;;19.50;17.67;;;;;;;;;;5071292;28;20204;-54
2023/01/07 03:46:21;;;;;;;18.10;16.33;;;;;;;;;;5071085;28;20357;-53
2023/01/07 03:48:47;;;;;;;19.07;16.80;;;;;;;;;;5071119;28;20740;-53
2023/01/07 03:51:14;;;;;;;18.43;16.77;;;;;;;;;;5072853;28;20204;-53
2023/01/07 03:53:40;;;;;;;18.00;16.30;;;;;;;;;;5090379;28;20203;-53
2023/01/07 03:56:06;;;;;;;17.63;16.03;;;;;;;;;;5092843;28;20193;-53
2023/01/07 03:58:32;;;;;;;17.43;15.83;;;;;;;;;;5095325;28;20244;-53
2023/01/07 04:00:58;;;;;;;18.37;16.50;;;;;;;;;;5095392;28;20613;-53
2023/01/07 04:03:24;;;;;;;17.50;15.73;;;;;;;;;;5095252;28;20234;-52
2023/01/07 04:05:50;;;;;;;16.50;15.00;;;;;;;;;;5094936;28;20265;-51
2023/01/07 04:08:17;;;;;;;16.63;15.03;;;;;;;;;;5095248;28;20252;-52
2023/01/07 04:10:43;;;;;;;16.37;14.90;;;;;;;;;;5095188;28;20217;-53
2023/01/07 04:13:09;;;;;;;17.20;15.43;;;;;;;;;;5095155;28;20203;-53
2023/01/07 04:15:35;;;;;;;16.03;14.53;;;;;;;;;;5095179;28;20222;-52
2023/01/07 04:18:01;;;;;;;15.80;14.30;;;;;;;;;;5094817;28;20213;-52
2023/01/07 04:20:27;;;;;;;14.67;12.93;;;;;;;;;;5094797;28;20195;-52
2023/01/07 04:22:53;;;;;;;15.70;14.30;;;;;;;;;;5094764;28;20597;-53
2023/01/07 04:25:20;;;;;;;14.30;13.00;;;;;;;;;;5094620;28;20242;-53
2023/01/07 04:27:46;;;;;;;13.57;12.37;;;;;;;;;;5094867;28;20602;-53
2023/01/07 04:30:12;;;;;;;12.80;11.60;;;;;;;;;;5094778;28;20665;-53
2023/01/07 04:32:39;;;;;;;13.73;12.10;;;;;;;;;;5094697;28;20255;-53
2023/01/07 04:35:05;;;;;;;13.27;12.07;;;;;;;;;;5094644;28;20218;-53
2023/01/07 04:37:31;;;;;;;12.50;11.40;;;;;;;;;;5094553;28;20215;-52
2023/01/07 04:39:57;;;;;;;13.00;11.80;;;;;;;;;;5094728;28;20194;-53
2023/01/07 04:42:24;;;;;;;12.43;11.30;;;;;;;;;;5094634;28;20191;-53
2023/01/07 04:44:50;;;;;;;11.20;10.10;;;;;;;;;;5094662;28;20205;-51
2023/01/07 04:47:16;;;;;;;11.20;10.20;;;;;;;;;;5094345;28;20226;-53
2023/01/07 04:49:42;;;;;;;10.90;9.90;;;;;;;;;;5094494;28;20222;-53
2023/01/07 04:52:08;;;;;;;11.30;10.27;;;;;;;;;;5094382;28;20203;-53
2023/01/07 04:54:34;;;;;;;10.17;9.27;;;;;;;;;;5094289;28;20199;-53
2023/01/07 04:57:00;;;;;;;10.53;9.63;;;;;;;;;;5094495;28;20253;-53
2023/01/07 04:59:27;;;;;;;10.40;9.50;;;;;;;;;;5094347;28;20194;-53
2023/01/07 05:01:53;;;;;;;10.17;9.27;;;;;;;;;;5094247;28;20202;-53
2023/01/07 05:04:19;;;;;;;9.83;8.90;;;;;;;;;;5094288;28;20195;-53
2023/01/07 05:06:45;;;;;;;9.20;8.40;;;;;;;;;;5093609;28;20225;-52
2023/01/07 05:09:11;;;;;;;10.03;9.10;;;;;;;;;;5093576;28;20195;-54
2023/01/07 05:11:37;;;;;;;10.37;8.77;;;;;;;;;;5094347;28;20202;-53
2023/01/07 05:14:03;;;;;;;9.30;8.40;;;;;;;;;;5094067;28;20240;-52
2023/01/07 05:16:31;;;;;;;8.77;7.97;;;;;;;;;;5093724;28;20198;-53
2023/01/07 05:18:57;;;;;;;8.60;7.80;;;;;;;;;;5093729;28;20668;-53
2023/01/07 05:21:23;;;;;;;8.70;7.90;;;;;;;;;;5093547;28;20289;-52
2023/01/07 05:23:49;;;;;;;7.80;7.00;;;;;;;;;;5093658;28;20329;-54
2023/01/07 05:26:15;;;;;;;7.70;6.67;;;;;;;;;;5093494;28;20244;-52
2023/01/07 05:28:41;;;;;;;7.30;6.60;;;;;;;;;;5093573;28;20248;-54
2023/01/07 05:31:07;;;;;;;7.30;6.70;;;;;;;;;;5093689;28;20195;-52
2023/01/07 05:33:34;;;;;;;6.27;5.77;;;;;;;;;;5093485;28;20195;-52
2023/01/07 05:36:01;;;;;;;5.73;5.13;;;;;;;;;;5093276;28;20219;-52
2023/01/07 05:38:26;;;;;;;5.73;5.23;;;;;;;;;;5093428;28;20649;-52
2023/01/07 05:40:52;;;;;;;5.40;4.90;;;;;;;;;;5093365;28;20191;-53
2023/01/07 05:43:20;;;;;;;5.23;4.80;;;;;;;;;;5093452;28;20199;-52
2023/01/07 05:45:46;;;;;;;5.03;4.53;;;;;;;;;;5092863;28;20773;-53
2023/01/07 05:48:12;;;;;;;5.23;4.77;;;;;;;;;;5093022;28;20551;-53
2023/01/07 05:50:39;;;;;;;4.57;4.27;;;;;;;;;;5093214;28;20274;-53
2023/01/07 05:53:05;;;;;;;5.03;4.60;;;;;;;;;;5093340;28;20209;-53
2023/01/07 05:55:31;;;;;;;4.83;4.43;;;;;;;;;;5093046;28;20195;-52
2023/01/07 05:57:57;;;;;;;4.83;4.43;;;;;;;;;;5093232;28;20256;-52
2023/01/07 06:00:23;;;;;;;4.70;4.27;;;;;;;;;;5093186;28;20557;-52
2023/01/07 06:02:49;;;;;;;4.90;4.40;;;;;;;;;;5092937;28;20238;-52
2023/01/07 06:05:15;;;;;;;4.37;3.97;;;;;;;;;;5092960;28;20195;-52
2023/01/07 06:07:42;;;;;;;4.30;3.90;;;;;;;;;;5092842;28;20198;-52
2023/01/07 06:10:10;;;;;;;3.87;3.57;;;;;;;;;;5092875;28;20210;-52
2023/01/07 06:12:35;;;;;;;5.70;3.83;;;;;;;;;;5092925;28;20191;-53
2023/01/07 06:15:01;;;;;;;3.70;3.40;;;;;;;;;;5092688;28;20198;-52
2023/01/07 06:17:27;;;;;;;3.93;3.60;;;;;;;;;;5092555;28;20203;-52
2023/01/07 06:19:53;;;;;;;3.70;3.40;;;;;;;;;;5092459;28;20652;-52
2023/01/07 06:22:19;;;;;;;3.67;3.37;;;;;;;;;;5092317;28;20245;-53
2023/01/07 06:24:47;;;;;;;3.10;2.90;;;;;;;;;;5092456;28;20198;-52
2023/01/07 06:27:12;;;;;;;3.50;3.20;;;;;;;;;;5092565;28;20226;-52
2023/01/07 06:29:38;;;;;;;3.80;3.10;;;;;;;;;;5092384;28;20222;-53
2023/01/07 06:32:05;;;;;;;3.20;3.00;;;;;;;;;;5092453;28;20291;-53
2023/01/07 06:34:31;;;;;;;3.07;2.87;;;;;;;;;;5092287;28;20352;-53
2023/01/07 06:36:57;;;;;;;3.30;2.70;;;;;;;;;;5092211;28;20195;-54
2023/01/07 06:39:23;;;;;;;2.97;2.70;;;;;;;;;;5092330;28;20293;-53
2023/01/07 06:41:50;;;;;;;3.23;3.03;;;;;;;;;;5092234;28;20309;-53
2023/01/07 06:44:16;;;;;;;2.63;2.43;;;;;;;;;;5092170;28;20203;-53
2023/01/07 06:46:42;;;;;;;2.53;2.33;;;;;;;;;;5092046;28;20233;-53
2023/01/07 06:49:08;;;;;;;2.77;2.57;;;;;;;;;;5092150;28;20275;-53
2023/01/07 06:51:34;;;;;;;5.17;2.30;;;;;;;;;;5092023;28;20548;-53
2023/01/07 06:54:00;;;;;;;2.50;1.90;;;;;;;;;;5092131;28;20201;-53
2023/01/07 06:56:26;;;;;;;1.97;1.80;;;;;;;;;;5091987;28;20195;-53
2023/01/07 06:58:53;;;;;;;2.40;2.20;;;;;;;;;;5091980;28;20680;-53
2023/01/07 07:01:19;;;;;;;1.90;1.80;;;;;;;;;;5091911;28;20230;-53
2023/01/07 07:03:45;;;;;;;2.17;2.07;;;;;;;;;;5091736;28;20230;-52
2023/01/07 07:06:11;;;;;;;3.57;2.10;;;;;;;;;;5091918;28;20308;-52
2023/01/07 07:08:37;;;;;;;1.87;1.77;;;;;;;;;;5091693;28;20206;-53
2023/01/07 07:11:03;;;;;;;1.90;1.70;;;;;;;;;;5091855;28;20206;-52
2023/01/07 07:13:29;;;;;;;3.57;2.07;;;;;;;;;;5091628;28;20598;-53
2023/01/07 07:15:57;;;;;;;3.83;1.77;;;;;;;;;;5091762;28;20202;-52
2023/01/07 07:18:23;;;;;;;2.73;1.90;;;;;;;;;;5091549;28;20206;-53
2023/01/07 07:20:49;;;;;;;1.80;1.70;;;;;;;;;;5091470;28;20195;-53
2023/01/07 07:23:14;;;;;;;2.17;1.97;;;;;;;;;;5091447;28;20288;-53
2023/01/07 07:25:41;;;;;;;2.60;2.20;;;;;;;;;;5091426;28;20215;-53
2023/01/07 07:28:07;;;;;;;1.77;1.67;;;;;;;;;;5091611;28;20202;-52
2023/01/07 07:30:33;;;;;;;2.00;1.80;;;;;;;;;;5090979;28;20198;-53
2023/01/07 07:33:05;;;;;;;3.83;2.73;;;;;;;;;;5091632;28;20278;-53
2023/01/07 07:35:31;;;;;;;2.57;2.33;;;;;;;;;;5091317;28;20235;-53
2023/01/07 07:37:57;;;;;;;4.70;2.60;;;;;;;;;;5091401;28;20554;-53
2023/01/07 07:40:23;;;;;;;1.83;1.70;;;;;;;;;;5091477;28;20199;-53
2023/01/07 07:42:49;;;;;;;3.50;2.77;;;;;;;;;;5091338;28;20206;-54
2023/01/07 07:45:15;;;;;;;2.70;2.00;;;;;;;;;;5091165;28;20848;-54
2023/01/07 07:47:41;;;;;;;1.70;1.60;;;;;;;;;;5091319;28;20217;-54
2023/01/07 07:50:09;;;;;;;1.70;1.60;;;;;;;;;;5091314;28;20665;-54
2023/01/07 07:52:35;;;;;;;1.67;1.57;;;;;;;;;;5091150;28;20210;-53
2023/01/07 07:55:01;;;;;;;3.17;1.70;;;;;;;;;;5090493;28;20205;-53
2023/01/07 07:57:27;;;;;;;1.80;1.70;;;;;;;;;;5090561;28;20600;-53
2023/01/07 07:59:53;;;;;;;1.63;1.50;;;;;;;;;;5091145;28;20199;-53
2023/01/07 08:02:19;;;;;;;1.57;1.47;;;;;;;;;;5091322;28;20195;-53
2023/01/07 08:04:45;;;;;;;2.00;1.73;;;;;;;;;;5090855;28;20190;-52
2023/01/07 08:07:12;;;;;;;2.50;1.53;;;;;;;;;;5091102;28;20222;-53
2023/01/07 08:09:38;;;;;;;1.70;1.60;;;;;;;;;;5091213;28;20240;-53
2023/01/07 08:12:05;;;;;;;1.77;1.53;;;;;;;;;;5091061;28;20202;-51
2023/01/07 08:14:31;;;;;;;1.60;1.50;;;;;;;;;;5090970;28;20230;-53
2023/01/07 08:16:57;;;;;;;1.70;1.47;;;;;;;;;;5090925;28;20238;-55
2023/01/07 08:19:23;;;;;;;5.33;2.47;;;;;;;;;;5090969;28;20233;-55
2023/01/07 08:21:50;;;;;;;2.97;2.20;;;;;;;;;;5090689;28;20191;-55
2023/01/07 08:24:17;;;;;;;2.10;1.90;;;;;;;;;;5091100;28;20209;-56
2023/01/07 08:26:43;;;;;;;2.00;1.77;;;;;;;;;;5090704;28;20219;-55
2023/01/07 08:29:09;;;;;;;2.67;1.60;;;;;;;;;;5090943;28;20264;-55
2023/01/07 08:31:35;;;;;;;1.70;1.60;;;;;;;;;;5090788;28;20205;-55
2023/01/07 08:34:01;;;;;;;2.77;1.67;;;;;;;;;;5090868;28;20657;-55
2023/01/07 08:36:27;;;;;;;1.97;1.83;;;;;;;;;;5090859;28;20199;-55
2023/01/07 08:38:53;;;;;;;1.83;1.60;;;;;;;;;;5090833;28;20290;-55
2023/01/07 08:41:21;;;;;;;1.50;1.40;;;;;;;;;;5091055;28;20206;-55
2023/01/07 08:43:47;;;;;;;3.40;1.40;;;;;;;;;;5093045;28;20207;-55
2023/01/07 08:46:13;;;;;;;3.07;1.40;;;;;;;;;;5094444;28;20254;-55
2023/01/07 08:48:39;;;;;;;1.73;1.63;;;;;;;;;;5094110;28;20733;-54
2023/01/07 08:51:05;;;;;;;2.20;1.50;;;;;;;;;;5094318;28;20274;-55
2023/01/07 08:53:31;;;;;;;1.43;1.33;;;;;;;;;;5092737;28;20226;-55
2023/01/07 08:55:57;;;;;;;2.37;1.77;;;;;;;;;;5094608;28;20278;-55
2023/01/07 08:58:25;;;;;;;1.67;1.57;;;;;;;;;;5094694;28;20676;-54
2023/01/07 09:00:51;;;;;;;1.30;1.20;;;;;;;;;;5094389;28;20202;-54
2023/01/07 09:03:17;;;;;;;1.50;1.40;;;;;;;;;;5094484;28;20198;-55
2023/01/07 09:05:43;;;;;;;1.57;1.30;;;;;;;;;;5094107;28;20629;-54
2023/01/07 09:08:09;;;;;;;2.13;1.50;;;;;;;;;;5094493;28;20198;-54
2023/01/07 09:10:35;;;;;;;1.50;1.40;;;;;;;;;;5094279;28;20274;-54
2023/01/07 09:13:01;;;;;;;1.50;1.20;;;;;;;;;;5094268;28;20733;-54
2023/01/07 09:15:28;;;;;;;1.70;1.60;;;;;;;;;;5094271;28;20203;-54
2023/01/07 09:17:54;;;;;;;1.50;1.40;;;;;;;;;;5093932;28;20689;-54
2023/01/07 09:20:26;;;;;;;1.50;1.40;;;;;;;;;;5094156;28;20206;-54
2023/01/07 09:22:52;;;;;;;1.53;1.43;;;;;;;;;;5093612;28;20254;-55
2023/01/07 09:25:18;;;;;;;1.87;1.77;;;;;;;;;;5093768;28;20279;-55
2023/01/07 09:27:44;;;;;;;2.20;1.60;;;;;;;;;;5093620;28;20721;-55
2023/01/07 09:30:11;;;;;;;1.60;1.50;;;;;;;;;;5093800;28;20669;-55
2023/01/07 09:32:38;;;;;;;1.70;1.60;;;;;;;;;;5093499;28;20663;-54
2023/01/07 09:35:04;;;;;;;2.17;1.90;;;;;;;;;;5093881;28;20568;-54
2023/01/07 09:37:30;;;;;;;1.77;1.60;;;;;;;;;;5093777;28;20278;-54
2023/01/07 09:39:56;;;;;;;2.33;1.63;;;;;;;;;;5093671;28;20286;-56
2023/01/07 09:42:26;;;;;;;3.07;1.87;;;;;;;;;;5093782;28;20215;-55
2023/01/07 09:45:05;;;;;;;3.90;1.90;;;;;;;;;;5093437;28;20198;-55
2023/01/07 09:47:32;;;;;;;1.80;1.70;;;;;;;;;;5093445;28;20692;-55
2023/01/07 09:50:03;;;;;;;2.07;1.87;;;;;;;;;;5093399;28;20216;-54
2023/01/07 09:52:31;;;;;;;1.70;1.60;;;;;;;;;;5091381;28;20264;-54
2023/01/07 09:55:01;;;;;;;1.60;1.50;;;;;;;;;;5092538;28;20199;-54
2023/01/07 09:57:27;;;;;;;2.57;1.60;;;;;;;;;;5093073;28;20195;-54
2023/01/07 09:59:53;;;;;;;1.70;1.60;;;;;;;;;;5092815;28;20588;-56
2023/01/07 10:02:25;;;;;;;2.13;1.60;;;;;;;;;;5092653;28;20767;-54
2023/01/07 10:04:55;;;;;;;1.80;1.63;;;;;;;;;;5092561;28;20661;-54
2023/01/07 10:07:25;;;;;;;2.00;1.80;;;;;;;;;;5092843;28;20237;-55
2023/01/07 10:09:57;;;;;;;1.60;1.50;;;;;;;;;;5092754;28;20296;-54
2023/01/07 10:12:28;;;;;;;1.50;1.40;;;;;;;;;;5092986;28;20225;-55
2023/01/07 10:15:04;;;;;;;2.40;1.90;;;;;;;;;;5092504;28;20648;-55
2023/01/07 10:17:37;;;;;;;2.10;1.80;;;;;;;;;;5092700;28;20615;-54
2023/01/07 10:20:10;;;;;;;1.50;1.40;;;;;;;;;;5092757;28;20672;-54
2023/01/07 10:22:39;;;;;;;1.47;1.37;;;;;;;;;;5092333;28;20261;-54
2023/01/07 10:25:12;;;;;;;2.10;1.60;;;;;;;;;;5092434;28;20552;-54
2023/01/07 10:27:41;;;;;;;2.00;1.90;;;;;;;;;;5092164;28;20585;-54
2023/01/07 10:30:12;;;;;;;1.70;1.60;;;;;;;;;;5092378;28;20194;-54
2023/01/07 10:32:38;;;;;;;1.50;1.40;;;;;;;;;;5092076;28;20645;-54
2023/01/07 10:35:12;;;;;;;1.90;1.70;;;;;;;;;;5092117;28;20719;-54
2023/01/07 10:37:41;;;;;;;1.60;1.50;;;;;;;;;;5092525;28;20191;-55
2023/01/07 10:40:16;;;;;;;1.50;1.40;;;;;;;;;;5092164;28;20195;-54
2023/01/07 10:42:45;;;;;;;1.80;1.70;;;;;;;;;;5092181;28;20202;-54
2023/01/07 10:45:30;;;;;;;1.70;1.60;;;;;;;;;;5092088;28;20230;-55
2023/01/07 10:48:05;;;;;;;3.57;2.10;;;;;;;;;;5092019;28;20206;-54
2023/01/07 10:50:42;;;;;;;3.43;2.03;;;;;;;;;;5092016;28;20198;-54
2023/01/07 10:53:14;;;;;;;2.40;2.20;;;;;;;;;;5092127;28;20289;-54
2023/01/07 10:55:45;;;;;;;2.53;1.90;;;;;;;;;;5091798;28;20251;-54
2023/01/07 10:58:11;;;;;;;2.30;2.00;;;;;;;;;;5092000;28;20222;-54
2023/01/07 11:00:37;;;;;;;4.33;2.50;;;;;;;;;;5091817;28;20205;-54
2023/01/07 11:03:03;;;;;;;2.33;1.90;;;;;;;;;;5091649;28;20664;-54
2023/01/07 11:05:35;;;;;;;2.67;2.07;;;;;;;;;;5091098;28;20240;-54
2023/01/07 11:08:02;;;;;;;2.97;2.20;;;;;;;;;;5091789;28;20238;-54
2023/01/07 11:10:31;;;;;;;3.27;2.33;;;;;;;;;;5091900;28;20730;-55
2023/01/07 11:12:59;;;;;;;2.93;2.20;;;;;;;;;;5091483;28;20203;-54
2023/01/07 11:15:27;;;;;;;2.13;1.93;;;;;;;;;;5091543;28;20289;-54
2023/01/07 11:17:55;;;;;;;3.27;1.97;;;;;;;;;;5091458;28;20191;-53
2023/01/07 11:20:39;;;;;;;2.10;2.00;;;;;;;;;;5091549;28;20203;-54
2023/01/07 11:23:17;;;;;;;2.43;2.17;;;;;;;;;;5091415;28;20230;-54
2023/01/07 11:25:46;;;;;;;2.40;1.90;;;;;;;;;;5091366;28;20213;-54
2023/01/07 11:28:17;;;;;;;2.27;2.07;;;;;;;;;;5091493;28;20226;-55
2023/01/07 11:30:43;;;;;;;2.27;2.07;;;;;;;;;;5091291;28;20202;-55
2023/01/07 11:33:24;;;;;;;2.53;2.00;;;;;;;;;;5091555;28;20191;-54
2023/01/07 11:35:51;;;;;;;2.40;2.20;;;;;;;;;;5091095;28;20215;-55
2023/01/07 11:38:28;;;;;;;2.30;2.10;;;;;;;;;;5091355;28;20859;-54
2023/01/07 11:40:56;;;;;;;2.40;2.10;;;;;;;;;;5091127;28;20198;-54
2023/01/07 11:43:23;;;;;;;2.20;2.00;;;;;;;;;;5091138;28;20558;-54
2023/01/07 11:45:49;;;;;;;2.10;1.90;;;;;;;;;;5090910;28;20186;-54
2023/01/07 11:48:18;;;;;;;2.13;1.93;;;;;;;;;;5091350;28;20229;-54
2023/01/07 11:50:54;;;;;;;2.37;2.00;;;;;;;;;;5091091;28;20199;-54
2023/01/07 11:53:23;;;;;;;2.07;1.60;;;;;;;;;;5091343;28;20528;-54
2023/01/07 11:55:57;;;;;;;1.70;1.53;;;;;;;;;;5091276;28;20219;-54
2023/01/07 11:58:24;;;;;;;1.60;1.50;;;;;;;;;;5091310;28;20214;-54
2023/01/07 12:01:01;;;;;;;1.70;1.60;;;;;;;;;;5090991;28;20209;-54
2023/01/07 12:03:27;;;;;;;1.40;1.30;;;;;;;;;;5091139;28;20247;-54
2023/01/07 12:05:55;;;;;;;3.63;1.63;;;;;;;;;;5090873;28;20203;-54
2023/01/07 12:08:22;;;;;;;1.53;1.43;;;;;;;;;;5091171;28;20331;-54
2023/01/07 12:10:54;;;;;;;1.30;1.20;;;;;;;;;;5091087;28;20287;-54
2023/01/07 12:13:24;;;;;;;1.40;1.30;;;;;;;;;;5090981;28;20199;-56
2023/01/07 12:15:52;;;;;;;1.87;1.30;;;;;;;;;;5090794;28;20252;-55
2023/01/07 12:18:27;;;;;;;1.37;1.27;;;;;;;;;;5094238;28;20229;-54
2023/01/07 12:21:00;;;;;;;1.60;1.50;;;;;;;;;;5094956;28;20209;-55
2023/01/07 12:23:32;;;;;;;1.60;1.40;;;;;;;;;;5094471;28;20246;-55
2023/01/07 12:26:02;;;;;;;1.47;1.37;;;;;;;;;;5094595;28;20224;-55
2023/01/07 12:28:40;;;;;;;2.23;1.60;;;;;;;;;;5094868;28;20793;-55
2023/01/07 12:31:17;;;;;;;1.37;1.27;;;;;;;;;;5094614;28;20206;-55
2023/01/07 12:33:56;;;;;;;1.33;1.23;;;;;;;;;;5094406;28;20202;-53
2023/01/07 12:36:27;;;;;;;1.60;1.50;;;;;;;;;;5094800;28;20187;-54
2023/01/07 12:38:56;;;;;;;1.40;1.30;;;;;;;;;;5094426;28;20210;-58
2023/01/07 12:41:23;;;;;;;1.20;1.10;;;;;;;;;;5094525;28;20199;-53
2023/01/07 12:43:55;;;;;;;1.60;1.20;;;;;;;;;;5094337;28;20343;-53
2023/01/07 12:46:21;;;;;;;1.13;1.13;;;;;;;;;;5094337;28;20214;-53
2023/01/07 12:48:53;;;;;;;1.07;1.07;;;;;;;;;;5094176;28;20203;-53
2023/01/07 12:51:21;;;;;;;1.30;1.20;;;;;;;;;;5094330;28;20195;-53
2023/01/07 12:53:50;;;;;;;1.10;1.00;;;;;;;;;;5094123;28;20203;-53
2023/01/07 12:56:17;;;;;;;1.20;1.10;;;;;;;;;;5094077;28;20187;-53
2023/01/07 12:58:46;;;;;;;1.00;1.00;;;;;;;;;;5094143;28;20268;-53
2023/01/07 13:01:20;;;;;;;1.20;1.10;;;;;;;;;;5094397;28;20199;-53
2023/01/07 13:03:54;;;;;;;1.60;1.03;;;;;;;;;;5093806;28;20235;-53
2023/01/07 13:06:23;;;;;;;1.20;1.10;;;;;;;;;;5094065;28;20222;-53
2023/01/07 13:08:52;;;;;;;1.30;1.20;;;;;;;;;;5093931;28;20198;-53
2023/01/07 13:12:41;;;;;;;1.13;1.10;;;;;;;;;;5094024;28;20226;-54
2023/01/07 13:14:12;;;;;;;1.30;1.20;;;;;;;;;;5093880;28;20306;-53
2023/01/07 13:16:40;;;;;;;1.30;1.20;;;;;;;;;;5093956;28;20191;-54
2023/01/07 13:19:07;;;;;;;1.40;1.30;;;;;;;;;;5093966;28;20268;-54
2023/01/07 13:21:34;;;;;;;1.30;1.20;;;;;;;;;;5091632;28;20207;-54
2023/01/07 13:24:07;;;;;;;1.27;1.17;;;;;;;;;;5093483;28;20647;-54
2023/01/07 13:26:39;;;;;;;1.10;1.10;;;;;;;;;;5093628;28;20404;-54
2023/01/07 13:29:15;;;;;;;1.10;1.10;;;;;;;;;;5092807;28;20256;-54
2023/01/07 13:31:58;;;;;;;1.23;1.13;;;;;;;;;;5093484;28;20563;-54
2023/01/07 13:34:28;;;;;;;1.33;1.13;;;;;;;;;;5093464;28;20231;-53
2023/01/07 13:37:04;;;;;;;1.07;1.07;;;;;;;;;;5093310;28;20191;-53
2023/01/07 13:39:39;;;;;;;1.40;1.30;;;;;;;;;;5093550;28;20611;-54
2023/01/07 13:42:10;;;;;;;1.30;1.20;;;;;;;;;;5093306;28;20241;-53
2023/01/07 13:44:46;;;;;;;1.40;1.30;;;;;;;;;;5093249;28;20230;-53
2023/01/07 13:47:15;;;;;;;1.10;1.10;;;;;;;;;;5093250;28;20236;-53
2023/01/07 13:49:41;;;;;;;1.40;1.30;;;;;;;;;;5093131;28;20277;-53
2023/01/07 13:52:18;;;;;;;1.50;1.40;;;;;;;;;;5093027;28;20206;-53
2023/01/07 13:54:58;;;;;;;1.43;1.33;;;;;;;;;;5092963;28;20247;-53
2023/01/07 13:57:40;;;;;;;1.57;1.40;;;;;;;;;;5093439;28;20202;-53
2023/01/07 14:00:35;;;;;;;1.97;1.40;;;;;;;;;;5092976;28;20195;-53
2023/01/07 14:03:02;;;;;;;1.93;1.30;;;;;;;;;;5093204;28;20188;-53
2023/01/07 14:05:29;;;;;;;1.77;1.43;;;;;;;;;;5093145;28;20203;-53
2023/01/07 14:07:56;;;;;;;1.57;1.43;;;;;;;;;;5091042;28;20725;-53
2023/01/07 14:10:25;;;;;;;2.80;2.47;;;;;;;;;;5092810;28;20228;-53
2023/01/07 14:13:04;;;;;;;1.50;1.40;;;;;;;;;;5092391;28;20195;-53
2023/01/07 14:15:49;;;;;;;2.47;1.57;;;;;;;;;;5092727;28;20205;-53
2023/01/07 14:18:35;;;;;;;1.50;1.40;;;;;;;;;;5092524;28;20171;-53
2023/01/07 14:21:09;;;;;;;2.60;1.40;;;;;;;;;;5092630;28;20215;-53
2023/01/07 14:23:37;;;;;;;1.70;1.50;;;;;;;;;;5092347;28;20252;-53
2023/01/07 14:26:08;;;;;;;1.90;1.40;;;;;;;;;;5092414;28;20205;-53
2023/01/07 14:28:45;;;;;;;1.90;1.70;;;;;;;;;;5092581;28;20194;-53
2023/01/07 14:31:19;;;;;;;1.50;1.40;;;;;;;;;;5092344;28;20202;-55
2023/01/07 14:33:48;;;;;;;3.10;1.90;;;;;;;;;;5091926;28;20400;-52
2023/01/07 14:36:15;;;;;;;3.27;1.70;;;;;;;;;;5092375;28;20278;-53
2023/01/07 14:38:45;;;;;;;2.20;1.67;;;;;;;;;;5092222;28;20665;-55
2023/01/07 14:41:12;;;;;;;2.20;1.70;;;;;;;;;;5090981;28;20195;-53